createdAt,value
2022-12-20T00:00:34.403Z,60.00
2022-12-20T00:01:34.491Z,60.50
2022-12-20T00:02:33.564Z,59.90
2022-12-20T00:03:36.385Z,62.10
2022-12-20T00:04:33.921Z,64.60
2022-12-20T00:05:34.659Z,59.90
2022-12-20T00:06:35.419Z,57.50
2022-12-20T00:07:34.343Z,55.50
2022-12-20T00:08:34.424Z,58.20
2022-12-20T00:09:34.373Z,58.50
2022-12-20T00:10:36.383Z,61.30
2022-12-20T00:11:33.919Z,60.60
2022-12-20T00:12:33.928Z,61.10
2022-12-20T00:13:33.848Z,59.80
2022-12-20T00:14:34.896Z,64.00
2022-12-20T00:15:34.908Z,67.70
2022-12-20T00:16:32.422Z,72.90
2022-12-20T00:17:33.006Z,77.40
2022-12-20T00:18:33.382Z,78.10
2022-12-20T00:19:36.394Z,73.50
2022-12-20T00:20:33.571Z,77.20
2022-12-20T00:21:32.836Z,69.10
2022-12-20T00:22:35.430Z,69.40
2022-12-20T00:23:33.411Z,70.20
2022-12-20T00:24:34.405Z,67.20
2022-12-20T00:25:33.342Z,68.00
2022-12-20T00:26:34.421Z,67.20
2022-12-20T00:27:35.343Z,78.00
2022-12-20T00:28:34.848Z,79.00
2022-12-20T00:29:33.914Z,70.00
2022-12-20T00:30:32.902Z,66.10
2022-12-20T00:31:34.355Z,65.00
2022-12-20T00:32:34.884Z,63.10
2022-12-20T00:33:34.343Z,61.90
2022-12-20T00:34:39.498Z,61.30
2022-12-20T00:35:34.857Z,63.70
2022-12-20T00:36:34.868Z,62.00
2022-12-20T00:37:35.839Z,63.90
2022-12-20T00:38:34.352Z,65.70
2022-12-20T00:39:34.929Z,73.70
2022-12-20T00:40:33.404Z,75.00
2022-12-20T00:41:33.387Z,75.80
2022-12-20T00:42:34.847Z,66.30
2022-12-20T00:43:34.382Z,76.70
2022-12-20T00:44:34.385Z,82.50
2022-12-20T00:45:32.409Z,72.90
2022-12-20T00:46:33.936Z,67.20
2022-12-20T00:47:35.377Z,66.20
2022-12-20T00:48:33.916Z,65.50
2022-12-20T00:49:33.843Z,67.60
2022-12-20T00:50:34.346Z,68.10
2022-12-20T00:51:36.351Z,66.50
2022-12-20T00:52:34.862Z,67.30
2022-12-20T00:53:33.843Z,66.70
2022-12-20T00:54:32.347Z,69.00
2022-12-20T00:55:32.430Z,73.20
2022-12-20T00:56:33.342Z,75.90
2022-12-20T00:57:33.931Z,94.50
2022-12-20T00:58:33.385Z,100.90
2022-12-20T00:59:33.275Z,133.10
2022-12-20T01:00:34.982Z,132.10
2022-12-20T01:01:36.048Z,101.50
2022-12-20T01:02:35.535Z,73.40
2022-12-20T01:03:32.476Z,69.60
2022-12-20T01:04:33.426Z,64.80
2022-12-20T01:05:32.595Z,64.10
2022-12-20T01:06:34.405Z,66.80
2022-12-20T01:07:34.345Z,63.00
2022-12-20T01:08:34.391Z,80.90
2022-12-20T01:09:33.444Z,148.40
2022-12-20T01:10:32.896Z,149.80
2022-12-20T01:11:33.379Z,110.10
2022-12-20T01:12:32.595Z,86.20
2022-12-20T01:13:35.365Z,73.50
2022-12-20T01:14:34.346Z,68.80
2022-12-20T01:15:32.926Z,62.80
2022-12-20T01:16:33.905Z,60.70
2022-12-20T01:17:33.916Z,69.00
2022-12-20T01:18:35.349Z,89.80
2022-12-20T01:19:33.350Z,81.60
2022-12-20T01:20:32.849Z,79.00
2022-12-20T01:21:35.875Z,73.10
2022-12-20T01:22:42.400Z,70.70
2022-12-20T01:23:34.416Z,66.20
2022-12-20T01:24:33.864Z,65.80
2022-12-20T01:25:35.347Z,66.40
2022-12-20T01:26:35.348Z,61.50
2022-12-20T01:27:33.083Z,61.20
2022-12-20T01:28:34.848Z,62.80
2022-12-20T01:29:32.921Z,71.50
2022-12-20T01:30:34.844Z,74.30
2022-12-20T01:31:34.953Z,71.40
2022-12-20T01:32:33.411Z,75.20
2022-12-20T01:33:33.848Z,70.00
2022-12-20T01:34:34.860Z,69.00
2022-12-20T01:35:32.849Z,68.60
2022-12-20T01:36:33.853Z,72.70
2022-12-20T01:37:32.369Z,65.80
2022-12-20T01:38:33.914Z,67.00
2022-12-20T01:39:32.078Z,63.90
2022-12-20T01:40:34.848Z,64.40
2022-12-20T01:41:32.849Z,66.70
2022-12-20T01:42:33.381Z,63.20
2022-12-20T01:43:34.371Z,65.30
2022-12-20T01:44:33.909Z,68.10
2022-12-20T01:45:34.397Z,67.80
2022-12-20T01:46:35.457Z,68.00
2022-12-20T01:47:33.352Z,63.90
2022-12-20T01:48:31.927Z,67.20
2022-12-20T01:49:33.348Z,67.30
2022-12-20T01:50:33.594Z,68.80
2022-12-20T01:51:32.581Z,62.50
2022-12-20T01:52:31.055Z,67.10
2022-12-20T01:53:31.063Z,69.90
2022-12-20T01:54:31.040Z,72.10
2022-12-20T01:55:31.040Z,68.10
2022-12-20T01:56:31.026Z,65.80
2022-12-20T01:57:31.005Z,66.00
2022-12-20T01:58:31.050Z,72.90
2022-12-20T01:59:31.009Z,68.90
2022-12-20T02:00:30.981Z,67.60
2022-12-20T02:01:31.033Z,67.50
2022-12-20T02:02:31.050Z,72.80
2022-12-20T02:03:31.093Z,70.00
2022-12-20T02:04:30.976Z,66.90
2022-12-20T02:05:30.963Z,69.10
2022-12-20T02:06:30.932Z,68.10
2022-12-20T02:07:30.930Z,68.40
2022-12-20T02:08:30.940Z,68.10
2022-12-20T02:09:30.908Z,100.20
2022-12-20T02:10:30.910Z,96.10
2022-12-20T02:11:30.895Z,77.20
2022-12-20T02:12:30.889Z,93.90
2022-12-20T02:13:30.950Z,89.40
2022-12-20T02:14:30.875Z,89.00
2022-12-20T02:15:30.872Z,94.50
2022-12-20T02:16:30.890Z,79.80
2022-12-20T02:17:30.857Z,70.20
2022-12-20T02:18:30.879Z,71.50
2022-12-20T02:19:30.834Z,66.50
2022-12-20T02:20:30.832Z,62.60
2022-12-20T02:21:30.821Z,62.70
2022-12-20T02:22:30.814Z,63.70
2022-12-20T02:23:30.839Z,63.20
2022-12-20T02:24:30.802Z,65.90
2022-12-20T02:25:30.792Z,65.50
2022-12-20T02:26:30.808Z,62.20
2022-12-20T02:27:30.790Z,63.30
2022-12-20T02:28:30.784Z,63.00
2022-12-20T02:29:30.762Z,63.60
2022-12-20T02:30:30.750Z,61.70
2022-12-20T02:31:30.766Z,64.50
2022-12-20T02:32:30.737Z,59.90
2022-12-20T02:33:30.756Z,62.00
2022-12-20T02:34:30.717Z,60.40
2022-12-20T02:35:31.575Z,59.00
2022-12-20T02:36:30.712Z,58.70
2022-12-20T02:37:30.700Z,58.10
2022-12-20T02:38:30.730Z,62.30
2022-12-20T02:39:30.682Z,61.40
2022-12-20T02:40:30.672Z,60.10
2022-12-20T02:41:30.663Z,58.80
2022-12-20T02:42:30.671Z,61.10
2022-12-20T02:43:30.675Z,61.90
2022-12-20T02:44:30.644Z,60.30
2022-12-20T02:45:30.630Z,60.50
2022-12-20T02:46:30.677Z,59.20
2022-12-20T02:47:30.614Z,58.70
2022-12-20T02:48:30.640Z,58.50
2022-12-20T02:49:30.608Z,57.70
2022-12-20T02:50:30.613Z,58.70
2022-12-20T02:51:30.588Z,57.50
2022-12-20T02:52:30.578Z,61.40
2022-12-20T02:53:30.596Z,57.60
2022-12-20T02:54:30.567Z,59.10
2022-12-20T02:55:30.571Z,57.70
2022-12-20T02:56:30.559Z,59.50
2022-12-20T02:57:30.550Z,59.40
2022-12-20T02:58:30.564Z,62.10
2022-12-20T02:59:30.539Z,56.40
2022-12-20T03:00:30.517Z,57.30
2022-12-20T03:01:30.680Z,52.80
2022-12-20T03:02:30.719Z,52.70
2022-12-20T03:03:30.581Z,53.00
2022-12-20T03:04:30.492Z,56.40
2022-12-20T03:05:30.480Z,53.00
2022-12-20T03:06:30.479Z,55.10
2022-12-20T03:07:30.471Z,58.10
2022-12-20T03:08:30.503Z,54.80
2022-12-20T03:09:30.472Z,51.10
2022-12-20T03:10:30.444Z,53.60
2022-12-20T03:11:30.436Z,53.00
2022-12-20T03:12:30.436Z,55.30
2022-12-20T03:13:30.460Z,52.00
2022-12-20T03:14:30.427Z,64.20
2022-12-20T03:15:30.409Z,62.40
2022-12-20T03:16:30.449Z,55.60
2022-12-20T03:17:30.392Z,57.60
2022-12-20T03:18:30.412Z,62.60
2022-12-20T03:19:30.382Z,58.50
2022-12-20T03:20:30.383Z,61.40
2022-12-20T03:21:30.361Z,61.60
2022-12-20T03:22:30.347Z,59.50
2022-12-20T03:23:30.370Z,61.60
2022-12-20T03:24:30.340Z,60.70
2022-12-20T03:25:30.332Z,58.50
2022-12-20T03:26:30.330Z,56.70
2022-12-20T03:27:30.337Z,53.90
2022-12-20T03:28:30.395Z,52.80
2022-12-20T03:29:30.297Z,53.50
2022-12-20T03:30:30.310Z,58.70
2022-12-20T03:31:30.372Z,55.90
2022-12-20T03:32:30.279Z,55.50
2022-12-20T03:33:30.268Z,56.20
2022-12-20T03:34:30.293Z,56.70
2022-12-20T03:35:30.252Z,55.60
2022-12-20T03:36:30.246Z,56.60
2022-12-20T03:37:30.237Z,54.00
2022-12-20T03:38:30.234Z,57.30
2022-12-20T03:39:30.269Z,60.40
2022-12-20T03:40:30.206Z,58.80
2022-12-20T03:41:30.215Z,58.30
2022-12-20T03:42:30.220Z,60.40
2022-12-20T03:43:30.215Z,59.00
2022-12-20T03:44:30.276Z,59.60
2022-12-20T03:45:30.183Z,58.10
2022-12-20T03:46:30.241Z,55.60
2022-12-20T03:47:30.167Z,59.10
2022-12-20T03:48:30.153Z,60.70
2022-12-20T03:49:30.177Z,60.80
2022-12-20T03:50:30.147Z,62.20
2022-12-20T03:51:30.134Z,55.90
2022-12-20T03:52:30.128Z,55.70
2022-12-20T03:53:30.126Z,55.20
2022-12-20T03:54:30.134Z,59.80
2022-12-20T03:55:30.160Z,57.50
2022-12-20T03:56:30.093Z,58.50
2022-12-20T03:57:30.082Z,56.00
2022-12-20T03:58:30.075Z,54.90
2022-12-20T03:59:30.099Z,59.80
2022-12-20T04:00:30.074Z,54.50
2022-12-20T04:01:30.158Z,61.30
2022-12-20T04:02:31.184Z,61.40
2022-12-20T04:03:30.212Z,61.00
2022-12-20T04:04:30.068Z,61.50
2022-12-20T04:05:30.030Z,59.80
2022-12-20T04:06:30.046Z,53.70
2022-12-20T04:07:30.013Z,52.00
2022-12-20T04:08:30.010Z,60.20
2022-12-20T04:09:30.021Z,59.80
2022-12-20T04:10:29.987Z,63.80
2022-12-20T04:11:29.982Z,63.70
2022-12-20T04:12:29.974Z,61.40
2022-12-20T04:13:29.971Z,63.20
2022-12-20T04:14:29.980Z,56.90
2022-12-20T04:15:30.012Z,52.10
2022-12-20T04:16:30.072Z,53.40
2022-12-20T04:17:29.954Z,53.80
2022-12-20T04:18:29.933Z,65.70
2022-12-20T04:19:29.957Z,63.70
2022-12-20T04:20:29.908Z,62.50
2022-12-20T04:21:29.906Z,63.10
2022-12-20T04:22:29.900Z,61.90
2022-12-20T04:23:29.891Z,66.60
2022-12-20T04:24:29.907Z,66.20
2022-12-20T04:25:29.871Z,66.40
2022-12-20T04:26:29.867Z,68.40
2022-12-20T04:27:29.857Z,67.50
2022-12-20T04:28:29.853Z,71.30
2022-12-20T04:29:29.885Z,68.50
2022-12-20T04:30:29.857Z,64.90
2022-12-20T04:31:29.894Z,66.60
2022-12-20T04:32:29.820Z,66.10
2022-12-20T04:33:29.823Z,65.60
2022-12-20T04:34:29.852Z,64.00
2022-12-20T04:35:29.805Z,62.00
2022-12-20T04:36:29.800Z,59.50
2022-12-20T04:37:29.787Z,63.00
2022-12-20T04:38:29.784Z,59.80
2022-12-20T04:39:29.814Z,69.40
2022-12-20T04:40:29.757Z,63.80
2022-12-20T04:41:29.757Z,66.60
2022-12-20T04:42:29.747Z,69.70
2022-12-20T04:43:29.741Z,67.90
2022-12-20T04:44:29.762Z,68.80
2022-12-20T04:45:29.724Z,66.10
2022-12-20T04:46:29.779Z,64.80
2022-12-20T04:47:29.723Z,65.00
2022-12-20T04:48:55.747Z,66.00
2022-12-20T04:49:31.726Z,64.90
2022-12-20T04:50:29.695Z,65.90
2022-12-20T04:51:29.688Z,69.10
2022-12-20T04:52:29.673Z,67.20
2022-12-20T04:53:29.661Z,70.20
2022-12-20T04:54:29.666Z,64.60
2022-12-20T04:55:29.675Z,61.80
2022-12-20T04:56:29.641Z,62.70
2022-12-20T04:57:29.627Z,65.30
2022-12-20T04:58:29.632Z,72.10
2022-12-20T04:59:29.623Z,59.80
2022-12-20T05:00:29.639Z,62.80
2022-12-20T05:01:29.728Z,65.50
2022-12-20T05:02:29.670Z,68.00
2022-12-20T05:03:29.660Z,68.40
2022-12-20T05:04:35.313Z,61.30
2022-12-20T05:05:31.603Z,55.20
2022-12-20T05:06:29.600Z,49.90
2022-12-20T05:07:29.553Z,49.90
2022-12-20T05:08:30.554Z,53.30
2022-12-20T05:09:29.547Z,49.90
2022-12-20T05:10:29.560Z,53.70
2022-12-20T05:11:29.531Z,56.30
2022-12-20T05:12:29.526Z,54.70
2022-12-20T05:13:29.546Z,59.80
2022-12-20T05:14:29.515Z,64.70
2022-12-20T05:15:29.528Z,62.90
2022-12-20T05:16:29.543Z,64.60
2022-12-20T05:17:29.524Z,67.50
2022-12-20T05:18:29.480Z,62.20
2022-12-20T05:19:29.477Z,64.60
2022-12-20T05:20:29.488Z,62.30
2022-12-20T05:21:29.460Z,62.80
2022-12-20T05:22:29.453Z,66.00
2022-12-20T05:23:29.445Z,68.70
2022-12-20T05:24:29.432Z,66.30
2022-12-20T05:25:29.492Z,72.70
2022-12-20T05:26:29.422Z,72.60
2022-12-20T05:27:29.410Z,68.80
2022-12-20T05:28:29.406Z,66.80
2022-12-20T05:29:29.401Z,67.60
2022-12-20T05:30:30.421Z,65.50
2022-12-20T05:31:29.428Z,63.40
2022-12-20T05:32:29.374Z,66.00
2022-12-20T05:33:34.047Z,68.00
2022-12-20T05:34:31.375Z,64.70
2022-12-20T05:35:29.397Z,62.80
2022-12-20T05:36:29.343Z,63.90
2022-12-20T05:37:29.327Z,60.80
2022-12-20T05:38:29.347Z,57.60
2022-12-20T05:39:30.316Z,63.60
2022-12-20T05:40:29.340Z,58.70
2022-12-20T05:41:29.305Z,57.40
2022-12-20T05:42:29.288Z,58.00
2022-12-20T05:43:29.289Z,59.20
2022-12-20T05:44:29.305Z,59.60
2022-12-20T05:45:29.295Z,59.70
2022-12-20T05:46:29.331Z,66.10
2022-12-20T05:47:29.332Z,63.80
2022-12-20T05:48:29.235Z,58.90
2022-12-20T05:49:29.240Z,62.80
2022-12-20T05:50:29.283Z,62.40
2022-12-20T05:51:29.219Z,58.50
2022-12-20T05:52:29.211Z,54.60
2022-12-20T05:53:29.215Z,59.30
2022-12-20T05:54:29.198Z,57.70
2022-12-20T05:55:29.221Z,52.10
2022-12-20T05:56:29.178Z,52.50
2022-12-20T05:57:29.176Z,52.20
2022-12-20T05:58:29.174Z,62.40
2022-12-20T05:59:29.185Z,59.50
2022-12-20T06:00:29.185Z,61.30
2022-12-20T06:01:29.218Z,56.90
2022-12-20T06:02:29.442Z,58.00
2022-12-20T06:03:29.251Z,58.40
2022-12-20T06:04:29.125Z,62.00
2022-12-20T06:05:29.135Z,190.30
2022-12-20T06:06:29.100Z,88.10
2022-12-20T06:07:29.179Z,103.10
2022-12-20T06:08:29.089Z,84.90
2022-12-20T06:09:29.088Z,75.00
2022-12-20T06:10:29.104Z,64.00
2022-12-20T06:11:30.365Z,68.20
2022-12-20T06:12:30.077Z,69.50
2022-12-20T06:13:29.057Z,61.70
2022-12-20T06:14:29.049Z,64.50
2022-12-20T06:15:29.042Z,64.10
2022-12-20T06:16:29.084Z,65.30
2022-12-20T06:17:29.027Z,65.10
2022-12-20T06:18:29.024Z,59.70
2022-12-20T06:19:29.037Z,59.20
2022-12-20T06:20:29.015Z,58.60
2022-12-20T06:21:29.112Z,59.30
2022-12-20T06:22:28.986Z,59.00
2022-12-20T06:23:28.990Z,57.30
2022-12-20T06:24:28.978Z,56.60
2022-12-20T06:25:28.975Z,59.80
2022-12-20T06:26:28.996Z,57.40
2022-12-20T06:27:28.956Z,55.00
2022-12-20T06:28:28.947Z,53.90
2022-12-20T06:29:28.945Z,52.30
2022-12-20T06:30:33.668Z,51.50
2022-12-20T06:31:31.003Z,51.70
2022-12-20T06:32:28.946Z,54.40
2022-12-20T06:33:28.922Z,57.60
2022-12-20T06:34:28.901Z,53.40
2022-12-20T06:35:28.906Z,54.30
2022-12-20T06:36:28.920Z,52.10
2022-12-20T06:37:28.876Z,53.10
2022-12-20T06:38:28.874Z,51.00
2022-12-20T06:39:28.870Z,54.30
2022-12-20T06:40:28.856Z,52.50
2022-12-20T06:41:28.878Z,52.50
2022-12-20T06:42:28.832Z,54.00
2022-12-20T06:43:28.845Z,55.80
2022-12-20T06:44:28.827Z,51.70
2022-12-20T06:45:28.854Z,57.60
2022-12-20T06:46:28.869Z,59.50
2022-12-20T06:47:28.806Z,65.40
2022-12-20T06:48:28.824Z,61.80
2022-12-20T06:49:28.784Z,62.50
2022-12-20T06:50:28.778Z,67.50
2022-12-20T06:51:28.808Z,62.60
2022-12-20T06:52:28.771Z,58.10
2022-12-20T06:53:28.762Z,56.30
2022-12-20T06:54:28.744Z,53.90
2022-12-20T06:55:28.736Z,50.60
2022-12-20T06:56:28.754Z,50.50
2022-12-20T06:57:28.729Z,51.40
2022-12-20T06:58:28.724Z,48.60
2022-12-20T06:59:28.713Z,48.70
2022-12-20T07:00:28.702Z,51.20
2022-12-20T07:01:28.839Z,54.50
2022-12-20T07:02:28.895Z,57.00
2022-12-20T07:03:28.803Z,53.80
2022-12-20T07:04:29.669Z,55.10
2022-12-20T07:05:28.662Z,53.30
2022-12-20T07:06:28.677Z,52.00
2022-12-20T07:07:28.650Z,54.40
2022-12-20T07:08:28.641Z,60.60
2022-12-20T07:09:28.640Z,56.90
2022-12-20T07:10:28.619Z,55.60
2022-12-20T07:11:28.703Z,57.30
2022-12-20T07:12:28.620Z,55.00
2022-12-20T07:13:28.629Z,53.60
2022-12-20T07:14:28.606Z,53.00
2022-12-20T07:15:28.579Z,53.30
2022-12-20T07:16:29.667Z,53.10
2022-12-20T07:17:28.571Z,56.50
2022-12-20T07:18:28.568Z,51.50
2022-12-20T07:19:28.635Z,50.80
2022-12-20T07:20:28.545Z,51.70
2022-12-20T07:21:28.561Z,53.30
2022-12-20T07:22:28.538Z,51.50
2022-12-20T07:23:28.573Z,50.40
2022-12-20T07:24:28.521Z,49.20
2022-12-20T07:25:28.518Z,50.50
2022-12-20T07:26:28.532Z,48.80
2022-12-20T07:27:28.493Z,52.20
2022-12-20T07:28:28.489Z,51.70
2022-12-20T07:29:28.485Z,53.10
2022-12-20T07:30:28.473Z,52.10
2022-12-20T07:31:28.527Z,53.70
2022-12-20T07:32:28.479Z,50.50
2022-12-20T07:33:28.458Z,51.80
2022-12-20T07:34:28.440Z,57.00
2022-12-20T07:35:28.465Z,57.20
2022-12-20T07:36:28.454Z,55.10
2022-12-20T07:37:28.423Z,57.80
2022-12-20T07:38:28.409Z,56.60
2022-12-20T07:39:28.407Z,54.00
2022-12-20T07:40:28.553Z,52.10
2022-12-20T07:41:28.431Z,48.60
2022-12-20T07:42:36.148Z,51.90
2022-12-20T07:43:29.372Z,46.80
2022-12-20T07:44:28.374Z,46.20
2022-12-20T07:45:28.420Z,44.70
2022-12-20T07:46:28.487Z,43.50
2022-12-20T07:47:28.347Z,45.00
2022-12-20T07:48:28.335Z,42.60
2022-12-20T07:49:28.332Z,43.90
2022-12-20T07:50:28.489Z,42.70
2022-12-20T07:51:29.339Z,43.10
2022-12-20T07:52:28.311Z,47.20
2022-12-20T07:53:28.317Z,47.60
2022-12-20T07:54:28.286Z,53.10
2022-12-20T07:55:29.284Z,52.50
2022-12-20T07:56:28.302Z,56.20
2022-12-20T07:57:28.271Z,53.80
2022-12-20T07:58:28.288Z,52.70
2022-12-20T07:59:28.256Z,53.70
2022-12-20T08:00:28.247Z,52.60
2022-12-20T08:01:28.407Z,55.50
2022-12-20T08:02:28.348Z,55.90
2022-12-20T08:03:28.410Z,51.80
2022-12-20T08:04:28.237Z,55.10
2022-12-20T08:05:28.207Z,53.70
2022-12-20T08:06:28.255Z,52.30
2022-12-20T08:07:28.196Z,53.50
2022-12-20T08:08:28.190Z,52.00
2022-12-20T08:09:28.181Z,52.60
2022-12-20T08:10:28.206Z,50.20
2022-12-20T08:11:28.185Z,48.10
2022-12-20T08:12:28.169Z,48.50
2022-12-20T08:13:28.151Z,50.20
2022-12-20T08:14:28.156Z,47.60
2022-12-20T08:15:28.159Z,51.30
2022-12-20T08:16:28.189Z,44.20
2022-12-20T08:17:29.127Z,44.70
2022-12-20T08:18:28.110Z,46.10
2022-12-20T08:19:32.216Z,44.10
2022-12-20T08:20:29.165Z,45.60
2022-12-20T08:21:28.122Z,43.90
2022-12-20T08:22:28.105Z,46.70
2022-12-20T08:23:28.077Z,48.00
2022-12-20T08:24:28.067Z,51.00
2022-12-20T08:25:28.054Z,54.20
2022-12-20T08:26:28.058Z,56.80
2022-12-20T08:27:28.070Z,53.20
2022-12-20T08:28:28.023Z,54.20
2022-12-20T08:29:29.052Z,52.80
2022-12-20T08:30:28.012Z,53.90
2022-12-20T08:31:28.102Z,50.80
2022-12-20T08:32:28.028Z,49.90
2022-12-20T08:33:28.003Z,46.50
2022-12-20T08:34:27.999Z,45.70
2022-12-20T08:35:27.974Z,51.70
2022-12-20T08:36:27.978Z,52.50
2022-12-20T08:37:28.011Z,48.30
2022-12-20T08:38:27.960Z,50.90
2022-12-20T08:39:27.947Z,49.30
2022-12-20T08:40:27.940Z,49.70
2022-12-20T08:41:27.934Z,49.00
2022-12-20T08:42:27.960Z,50.60
2022-12-20T08:43:27.919Z,49.30
2022-12-20T08:44:27.919Z,49.00
2022-12-20T08:45:27.904Z,43.60
2022-12-20T08:46:27.981Z,43.00
2022-12-20T08:47:27.918Z,46.10
2022-12-20T08:48:27.899Z,42.40
2022-12-20T08:49:27.882Z,44.30
2022-12-20T08:50:27.874Z,43.40
2022-12-20T08:51:27.891Z,42.40
2022-12-20T08:52:27.880Z,44.00
2022-12-20T08:53:27.847Z,42.50
2022-12-20T08:54:27.857Z,41.40
2022-12-20T08:55:27.994Z,41.50
2022-12-20T08:56:28.823Z,40.70
2022-12-20T08:57:27.844Z,39.40
2022-12-20T08:58:27.818Z,41.30
2022-12-20T08:59:27.806Z,39.40
2022-12-20T09:00:27.796Z,38.40
2022-12-20T09:01:27.940Z,36.50
2022-12-20T09:02:27.940Z,40.00
2022-12-20T09:03:27.818Z,40.40
2022-12-20T09:04:27.785Z,41.80
2022-12-20T09:05:27.763Z,45.90
2022-12-20T09:06:27.752Z,42.90
2022-12-20T09:07:27.784Z,39.10
2022-12-20T09:08:27.754Z,37.90
2022-12-20T09:09:27.729Z,35.00
2022-12-20T09:10:27.728Z,35.90
2022-12-20T09:11:27.720Z,34.10
2022-12-20T09:12:27.726Z,39.30
2022-12-20T09:13:27.792Z,42.90
2022-12-20T09:14:27.723Z,44.60
2022-12-20T09:15:27.777Z,38.40
2022-12-20T09:16:27.741Z,39.00
2022-12-20T09:17:27.696Z,43.80
2022-12-20T09:18:27.662Z,38.20
2022-12-20T09:19:27.660Z,37.60
2022-12-20T09:20:27.647Z,37.10
2022-12-20T09:21:27.642Z,35.50
2022-12-20T09:22:27.663Z,36.50
2022-12-20T09:23:27.623Z,34.30
2022-12-20T09:24:27.613Z,37.20
2022-12-20T09:25:27.612Z,41.10
2022-12-20T09:26:27.620Z,41.10
2022-12-20T09:27:27.630Z,39.60
2022-12-20T09:28:27.591Z,37.80
2022-12-20T09:29:35.123Z,36.80
2022-12-20T09:30:29.580Z,37.00
2022-12-20T09:31:27.646Z,38.50
2022-12-20T09:32:27.594Z,37.50
2022-12-20T09:33:27.562Z,37.20
2022-12-20T09:34:27.543Z,38.40
2022-12-20T09:35:27.548Z,42.60
2022-12-20T09:36:27.543Z,42.80
2022-12-20T09:37:29.528Z,44.50
2022-12-20T09:38:27.519Z,47.70
2022-12-20T09:39:27.522Z,44.10
2022-12-20T09:40:27.509Z,46.20
2022-12-20T09:41:27.502Z,50.30
2022-12-20T09:42:27.512Z,41.90
2022-12-20T09:43:27.482Z,44.80
2022-12-20T09:44:27.478Z,38.50
2022-12-20T09:45:27.572Z,39.70
2022-12-20T09:46:27.529Z,39.60
2022-12-20T09:47:27.471Z,41.80
2022-12-20T09:48:27.449Z,38.60
2022-12-20T09:49:27.438Z,41.40
2022-12-20T09:50:27.439Z,44.60
2022-12-20T09:51:27.425Z,39.40
2022-12-20T09:52:27.464Z,40.90
2022-12-20T09:53:27.406Z,37.80
2022-12-20T09:54:27.410Z,35.10
2022-12-20T09:55:27.420Z,33.80
2022-12-20T09:56:27.391Z,34.70
2022-12-20T09:57:27.412Z,36.50
2022-12-20T09:58:27.369Z,36.10
2022-12-20T09:59:27.360Z,38.50
2022-12-20T10:00:27.342Z,39.60
2022-12-20T10:01:32.584Z,41.30
2022-12-20T10:02:57.118Z,42.40
2022-12-20T10:03:29.570Z,38.00
2022-12-20T10:04:27.644Z,36.50
2022-12-20T10:05:27.431Z,32.70
2022-12-20T10:06:27.322Z,40.60
2022-12-20T10:07:27.329Z,33.90
2022-12-20T10:08:27.319Z,31.60
2022-12-20T10:09:27.276Z,29.30
2022-12-20T10:10:27.277Z,28.50
2022-12-20T10:11:29.610Z,31.50
2022-12-20T10:12:28.294Z,31.50
2022-12-20T10:13:27.247Z,30.60
2022-12-20T10:14:27.276Z,34.60
2022-12-20T10:15:27.240Z,32.30
2022-12-20T10:16:27.328Z,30.70
2022-12-20T10:17:32.239Z,31.00
2022-12-20T10:18:29.237Z,30.40
2022-12-20T10:19:27.212Z,30.10
2022-12-20T10:20:27.205Z,28.90
2022-12-20T10:21:27.190Z,29.20
2022-12-20T10:22:27.185Z,28.30
2022-12-20T10:23:33.032Z,26.90
2022-12-20T10:24:29.185Z,29.80
2022-12-20T10:25:27.157Z,29.60
2022-12-20T10:26:27.176Z,28.70
2022-12-20T10:27:27.152Z,29.50
2022-12-20T10:28:27.171Z,27.60
2022-12-20T10:29:27.124Z,27.50
2022-12-20T10:30:27.129Z,27.00
2022-12-20T10:31:27.175Z,26.50
2022-12-20T10:32:27.142Z,25.60
2022-12-20T10:33:27.123Z,26.90
2022-12-20T10:34:31.686Z,27.90
2022-12-20T10:35:29.112Z,28.60
2022-12-20T10:36:27.338Z,29.20
2022-12-20T10:37:27.073Z,29.30
2022-12-20T10:38:27.092Z,28.40
2022-12-20T10:39:27.046Z,30.50
2022-12-20T10:40:46.368Z,27.60
2022-12-20T10:41:29.030Z,28.50
2022-12-20T10:42:27.076Z,29.70
2022-12-20T10:43:27.044Z,28.10
2022-12-20T10:44:27.023Z,29.10
2022-12-20T10:45:32.554Z,28.30
2022-12-20T10:46:29.042Z,27.80
2022-12-20T10:47:26.983Z,28.40
2022-12-20T10:48:27.010Z,27.90
2022-12-20T10:49:26.976Z,29.90
2022-12-20T10:50:26.965Z,32.60
2022-12-20T10:51:26.975Z,31.70
2022-12-20T10:52:26.945Z,29.90
2022-12-20T10:53:27.947Z,29.50
2022-12-20T10:54:27.244Z,30.60
2022-12-20T10:55:26.940Z,29.70
2022-12-20T10:56:26.914Z,30.60
2022-12-20T10:57:26.917Z,33.60
2022-12-20T10:58:26.913Z,34.50
2022-12-20T10:59:26.922Z,34.20
2022-12-20T11:00:26.882Z,33.50
2022-12-20T11:01:26.979Z,33.80
2022-12-20T11:02:29.268Z,32.00
2022-12-20T11:03:28.036Z,33.10
2022-12-20T11:04:26.926Z,33.10
2022-12-20T11:05:26.860Z,31.30
2022-12-20T11:06:26.845Z,28.80
2022-12-20T11:07:26.941Z,30.50
2022-12-20T11:08:40.457Z,30.60
2022-12-20T11:09:28.863Z,31.10
2022-12-20T11:10:26.806Z,32.40
2022-12-20T11:11:26.817Z,32.20
2022-12-20T11:12:26.793Z,34.00
2022-12-20T11:13:27.786Z,34.40
2022-12-20T11:14:26.814Z,45.90
2022-12-20T11:15:34.432Z,50.80
2022-12-20T11:16:27.799Z,60.80
2022-12-20T11:17:26.841Z,40.30
2022-12-20T11:18:26.752Z,33.20
2022-12-20T11:19:26.800Z,30.40
2022-12-20T11:20:26.769Z,29.00
2022-12-20T11:21:28.588Z,28.90
2022-12-20T11:22:27.715Z,29.00
2022-12-20T11:23:26.740Z,28.70
2022-12-20T11:24:26.745Z,27.10
2022-12-20T11:25:26.767Z,28.20
2022-12-20T11:26:26.697Z,26.80
2022-12-20T11:27:26.696Z,26.80
2022-12-20T11:28:26.678Z,26.30
2022-12-20T11:29:26.740Z,26.00
2022-12-20T11:30:26.670Z,27.20
2022-12-20T11:31:27.702Z,27.80
2022-12-20T11:32:26.664Z,28.40
2022-12-20T11:33:26.641Z,27.90
2022-12-20T11:34:26.671Z,28.60
2022-12-20T11:35:26.635Z,27.90
2022-12-20T11:36:26.614Z,28.00
2022-12-20T11:37:26.601Z,31.70
2022-12-20T11:38:26.606Z,42.70
2022-12-20T11:39:26.641Z,39.20
2022-12-20T11:40:26.584Z,39.30
2022-12-20T11:41:26.590Z,40.40
2022-12-20T11:42:26.594Z,38.00
2022-12-20T11:43:26.575Z,43.80
2022-12-20T11:44:27.406Z,74.50
2022-12-20T11:45:27.572Z,64.70
2022-12-20T11:46:26.589Z,45.40
2022-12-20T11:47:26.549Z,39.30
2022-12-20T11:48:26.522Z,38.30
2022-12-20T11:49:26.520Z,39.40
2022-12-20T11:50:26.529Z,43.30
2022-12-20T11:51:27.263Z,52.20
2022-12-20T11:52:27.505Z,59.20
2022-12-20T11:53:26.491Z,70.30
2022-12-20T11:54:26.475Z,63.20
2022-12-20T11:55:26.510Z,50.90
2022-12-20T11:56:26.471Z,49.20
2022-12-20T11:57:26.468Z,56.50
2022-12-20T11:58:26.435Z,48.70
2022-12-20T11:59:26.502Z,46.60
2022-12-20T12:00:26.456Z,42.10
2022-12-20T12:01:26.485Z,42.50
2022-12-20T12:02:26.532Z,41.20
2022-12-20T12:03:26.536Z,52.00
2022-12-20T12:04:26.397Z,68.00
2022-12-20T12:05:26.472Z,65.00
2022-12-20T12:06:26.391Z,54.20
2022-12-20T12:07:26.383Z,59.00
2022-12-20T12:08:26.407Z,55.20
2022-12-20T12:09:26.364Z,60.80
2022-12-20T12:10:26.381Z,52.40
2022-12-20T12:12:04.535Z,52.70
2022-12-20T12:12:28.346Z,44.40
2022-12-20T12:13:26.334Z,46.20
2022-12-20T12:14:26.326Z,41.90
2022-12-20T12:15:26.334Z,48.50
2022-12-20T12:16:26.375Z,43.00
2022-12-20T12:17:26.319Z,47.40
2022-12-20T12:18:26.299Z,43.20
2022-12-20T12:19:26.347Z,44.70
2022-12-20T12:20:26.303Z,53.40
2022-12-20T12:21:26.296Z,54.10
2022-12-20T12:22:26.316Z,53.30
2022-12-20T12:23:26.285Z,64.50
2022-12-20T12:24:26.268Z,62.60
2022-12-20T12:25:26.272Z,47.40
2022-12-20T12:26:26.258Z,44.50
2022-12-20T12:27:26.242Z,43.20
2022-12-20T12:28:26.258Z,42.40
2022-12-20T12:29:26.265Z,41.50
2022-12-20T12:30:26.258Z,38.60
2022-12-20T12:31:26.288Z,28.60
2022-12-20T12:32:26.202Z,30.60
2022-12-20T12:33:26.180Z,36.90
2022-12-20T12:34:26.176Z,38.20
2022-12-20T12:35:26.156Z,40.80
2022-12-20T12:36:26.299Z,33.60
2022-12-20T12:37:26.152Z,34.00
2022-12-20T12:38:26.163Z,31.90
2022-12-20T12:39:26.131Z,27.70
2022-12-20T12:40:26.130Z,29.00
2022-12-20T12:41:26.131Z,32.60
2022-12-20T12:42:26.141Z,30.80
2022-12-20T12:43:26.105Z,27.60
2022-12-20T12:44:26.101Z,26.80
2022-12-20T12:45:26.119Z,27.60
2022-12-20T12:46:26.152Z,25.50
2022-12-20T12:47:26.064Z,30.10
2022-12-20T12:48:26.063Z,26.60
2022-12-20T12:49:26.049Z,31.60
2022-12-20T12:50:26.045Z,33.30
2022-12-20T12:51:26.076Z,32.40
2022-12-20T12:52:27.898Z,32.50